Time,TemperatureF,DewpointF,PressureIn,WindDirection,WindDirectionDegrees,WindSpeedMPH,WindSpeedGustMPH,Humidity,HourlyPrecipIn,Conditions,Clouds,dailyrainin,SolarRadiationWatts/m^2,SoftwareType,DateUTC
2013-12-16 00:02:00,-3.0,-9.0,-100.00,WNW,293,4.0,9.0,76,0.00,,,0.00,0.000000,,2013-12-16 06:02:00,
2013-12-16 00:12:00,-3.0,-9.0,-100.00,WNW,293,4.0,9.0,76,0.00,,,0.00,0.000000,,2013-12-16 06:12:00,
2013-12-16 00:42:00,-4.0,-10.0,-100.00,WNW,287,3.0,9.0,76,0.00,,,0.00,0.000000,,2013-12-16 06:42:00,
2013-12-16 00:52:00,-4.0,-10.0,-100.00,WNW,287,3.0,9.0,76,0.00,,,0.00,0.000000,,2013-12-16 06:52:00,
2013-12-16 01:01:00,-4.0,-10.0,-100.00,WNW,287,3.0,9.0,76,0.00,,,0.00,0.000000,,2013-12-16 07:01:00,
2013-12-16 01:11:00,-4.0,-10.0,-100.00,WNW,287,3.0,9.0,76,0.00,,,0.00,0.000000,,2013-12-16 07:11:00,
2013-12-16 01:43:00,-6.0,-12.0,-100.00,West,270,2.0,6.0,76,0.00,,,0.00,0.000000,,2013-12-16 07:43:00,
2013-12-16 01:52:00,-6.0,-12.0,-100.00,West,270,2.0,6.0,76,0.00,,,0.00,0.000000,,2013-12-16 07:52:00,
2013-12-16 02:02:00,-6.0,-12.0,-100.00,West,270,2.0,6.0,76,0.00,,,0.00,0.000000,,2013-12-16 08:02:00,
2013-12-16 02:12:00,-6.0,-12.0,-100.00,West,270,2.0,6.0,76,0.00,,,0.00,0.000000,,2013-12-16 08:12:00,
2013-12-16 02:42:00,-9.0,-15.0,-100.00,WSW,251,2.0,4.0,74,0.00,,,0.00,0.000000,,2013-12-16 08:42:00,
2013-12-16 02:52:00,-9.0,-15.0,-100.00,WSW,251,2.0,4.0,74,0.00,,,0.00,0.000000,,2013-12-16 08:52:00,
2013-12-16 03:03:00,-9.0,-15.0,-100.00,WSW,251,2.0,4.0,74,0.00,,,0.00,0.000000,,2013-12-16 09:03:00,
2013-12-16 03:11:00,-9.0,-15.0,-100.00,WSW,251,2.0,4.0,74,0.00,,,0.00,0.000000,,2013-12-16 09:11:00,
2013-12-16 03:43:00,-11.0,-17.0,-100.00,WSW,243,2.0,3.0,73,0.00,,,0.00,0.000000,,2013-12-16 09:43:00,
2013-12-16 03:53:00,-11.0,-17.0,-100.00,WSW,243,2.0,3.0,73,0.00,,,0.00,0.000000,,2013-12-16 09:53:00,
2013-12-16 04:03:00,-11.0,-17.0,-100.00,WSW,243,2.0,3.0,73,0.00,,,0.00,0.000000,,2013-12-16 10:03:00,
2013-12-16 04:12:00,-11.0,-17.0,-100.00,WSW,243,2.0,3.0,73,0.00,,,0.00,0.000000,,2013-12-16 10:12:00,
2013-12-16 04:43:00,-12.0,-19.0,-100.00,North,-999,0.0,3.0,71,0.00,,,0.00,0.000000,,2013-12-16 10:43:00,
2013-12-16 04:52:00,-12.0,-19.0,-100.00,North,-999,0.0,3.0,71,0.00,,,0.00,0.000000,,2013-12-16 10:52:00,
2013-12-16 05:02:00,-12.0,-19.0,-100.00,North,-999,0.0,3.0,71,0.00,,,0.00,0.000000,,2013-12-16 11:02:00,
2013-12-16 05:12:00,-12.0,-19.0,-100.00,North,-999,0.0,3.0,71,0.00,,,0.00,0.000000,,2013-12-16 11:12:00,
2013-12-16 05:42:00,-14.0,-21.0,-100.00,West,274,1.0,2.0,69,0.00,,,0.00,0.000000,,2013-12-16 11:42:00,
2013-12-16 05:53:00,-14.0,-21.0,-100.00,West,274,1.0,2.0,69,0.00,,,0.00,0.000000,,2013-12-16 11:53:00,
2013-12-16 06:02:00,-14.0,-21.0,-100.00,West,274,1.0,2.0,69,0.00,,,0.00,0.000000,,2013-12-16 12:02:00,
2013-12-16 06:12:00,-14.0,-21.0,-100.00,West,274,1.0,2.0,69,0.00,,,0.00,0.000000,,2013-12-16 12:12:00,
2013-12-16 06:42:00,-15.0,-22.0,-100.00,West,268,2.0,2.0,69,0.00,,,0.00,0.000000,,2013-12-16 12:42:00,
2013-12-16 06:52:00,-15.0,-22.0,-100.00,West,268,2.0,2.0,69,0.00,,,0.00,0.000000,,2013-12-16 12:52:00,
2013-12-16 07:01:00,-15.0,-22.0,-100.00,West,268,2.0,2.0,69,0.00,,,0.00,0.000000,,2013-12-16 13:01:00,
2013-12-16 07:11:00,-15.0,-22.0,-100.00,West,268,2.0,2.0,69,0.00,,,0.00,0.000000,,2013-12-16 13:11:00,
2013-12-16 07:42:00,-15.0,-22.0,-100.00,North,-999,0.0,2.0,69,0.00,,,0.00,1.000000,,2013-12-16 13:42:00,
2013-12-16 07:52:00,-15.0,-22.0,-100.00,North,-999,0.0,2.0,69,0.00,,,0.00,1.000000,,2013-12-16 13:52:00,
2013-12-16 08:02:00,-15.0,-22.0,-100.00,North,-999,0.0,2.0,69,0.00,,,0.00,1.000000,,2013-12-16 14:02:00,
2013-12-16 08:12:00,-15.0,-22.0,-100.00,North,-999,0.0,2.0,69,0.00,,,0.00,1.000000,,2013-12-16 14:12:00,
2013-12-16 08:42:00,-11.0,-18.0,-100.00,North,-999,0.0,2.0,70,0.00,,,0.00,15.000000,,2013-12-16 14:42:00,
2013-12-16 08:52:00,-11.0,-18.0,-100.00,North,-999,0.0,2.0,70,0.00,,,0.00,15.000000,,2013-12-16 14:52:00,
2013-12-16 09:02:00,-11.0,-18.0,-100.00,North,-999,0.0,2.0,70,0.00,,,0.00,15.000000,,2013-12-16 15:02:00,
2013-12-16 09:11:00,-11.0,-18.0,-100.00,North,-999,0.0,2.0,70,0.00,,,0.00,15.000000,,2013-12-16 15:11:00,
2013-12-16 09:13:00,-3.0,-10.0,-100.00,North,-999,0.0,3.0,71,0.00,,,0.00,60.000000,,2013-12-16 15:13:00,
2013-12-16 09:43:00,-3.0,-10.0,-100.00,North,-999,0.0,3.0,71,0.00,,,0.00,60.000000,,2013-12-16 15:43:00,
2013-12-16 09:54:00,-3.0,-10.0,-100.00,North,-999,0.0,3.0,71,0.00,,,0.00,60.000000,,2013-12-16 15:54:00,
2013-12-16 10:04:00,-3.0,-10.0,-100.00,North,-999,0.0,3.0,71,0.00,,,0.00,60.000000,,2013-12-16 16:04:00,
2013-12-16 11:43:00,13.0,3.0,-100.00,SSE,160,5.0,11.0,65,0.00,,,0.00,298.000000,,2013-12-16 17:43:00,
2013-12-16 11:52:00,13.0,3.0,-100.00,SSE,160,5.0,11.0,65,0.00,,,0.00,298.000000,,2013-12-16 17:52:00,
2013-12-16 12:02:00,13.0,3.0,-100.00,SSE,160,5.0,11.0,65,0.00,,,0.00,298.000000,,2013-12-16 18:02:00,
2013-12-16 12:12:00,13.0,3.0,-100.00,SSE,160,5.0,11.0,65,0.00,,,0.00,298.000000,,2013-12-16 18:12:00,
2013-12-16 12:42:00,15.0,3.0,-100.00,SSE,155,7.0,12.0,57,0.00,,,0.00,259.000000,,2013-12-16 18:42:00,
2013-12-16 12:52:00,15.0,3.0,-100.00,SSE,155,7.0,12.0,57,0.00,,,0.00,259.000000,,2013-12-16 18:52:00,
2013-12-16 13:02:00,15.0,3.0,-100.00,SSE,155,7.0,12.0,57,0.00,,,0.00,259.000000,,2013-12-16 19:02:00,
2013-12-16 13:11:00,15.0,3.0,-100.00,SSE,155,7.0,12.0,57,0.00,,,0.00,259.000000,,2013-12-16 19:11:00,
2013-12-16 13:42:00,16.0,3.0,-100.00,SSW,193,4.0,13.0,56,0.00,,,0.00,178.000000,,2013-12-16 19:42:00,
2013-12-16 13:52:00,16.0,3.0,-100.00,SSW,193,4.0,13.0,56,0.00,,,0.00,178.000000,,2013-12-16 19:52:00,
2013-12-16 14:02:00,16.0,3.0,-100.00,SSW,193,4.0,13.0,56,0.00,,,0.00,178.000000,,2013-12-16 20:02:00,
2013-12-16 14:11:00,16.0,3.0,-100.00,SSW,193,4.0,13.0,56,0.00,,,0.00,178.000000,,2013-12-16 20:11:00,
2013-12-16 14:42:00,15.0,2.0,-100.00,SSW,209,5.0,13.0,56,0.00,,,0.00,87.000000,,2013-12-16 20:42:00,
2013-12-16 14:53:00,15.0,2.0,-100.00,SSW,209,5.0,13.0,56,0.00,,,0.00,87.000000,,2013-12-16 20:53:00,
2013-12-16 15:02:00,15.0,2.0,-100.00,SSW,209,5.0,13.0,56,0.00,,,0.00,87.000000,,2013-12-16 21:02:00,
2013-12-16 15:12:00,15.0,2.0,-100.00,SSW,209,5.0,13.0,56,0.00,,,0.00,87.000000,,2013-12-16 21:12:00,
2013-12-16 15:13:00,15.0,2.0,-100.00,SSW,197,5.0,10.0,56,0.00,,,0.00,38.000000,,2013-12-16 21:13:00,
2013-12-16 15:44:00,15.0,2.0,-100.00,SSW,197,5.0,10.0,56,0.00,,,0.00,38.000000,,2013-12-16 21:44:00,
2013-12-16 15:54:00,15.0,2.0,-100.00,SSW,197,5.0,10.0,56,0.00,,,0.00,38.000000,,2013-12-16 21:54:00,
2013-12-16 16:03:00,15.0,2.0,-100.00,SSW,197,5.0,10.0,56,0.00,,,0.00,38.000000,,2013-12-16 22:03:00,
2013-12-16 16:43:00,12.0,6.0,-100.00,South,177,4.0,10.0,78,0.00,,,0.00,11.000000,,2013-12-16 22:43:00,
2013-12-16 16:53:00,12.0,6.0,-100.00,South,177,4.0,10.0,78,0.00,,,0.00,11.000000,,2013-12-16 22:53:00,
2013-12-16 17:02:00,12.0,6.0,-100.00,South,177,4.0,10.0,78,0.00,,,0.00,11.000000,,2013-12-16 23:02:00,
2013-12-16 17:12:00,12.0,6.0,-100.00,South,177,4.0,10.0,78,0.00,,,0.00,11.000000,,2013-12-16 23:12:00,
2013-12-16 17:43:00,12.0,8.0,-100.00,South,171,4.0,8.0,83,0.00,,,0.00,0.000000,,2013-12-16 23:43:00,
2013-12-16 17:53:00,12.0,8.0,-100.00,South,171,4.0,8.0,83,0.00,,,0.00,0.000000,,2013-12-16 23:53:00,
2013-12-16 18:02:00,12.0,8.0,-100.00,South,171,4.0,8.0,83,0.00,,,0.00,0.000000,,2013-12-17 00:02:00,
2013-12-16 18:11:00,12.0,8.0,-100.00,South,171,4.0,8.0,83,0.00,,,0.00,0.000000,,2013-12-17 00:11:00,
2013-12-16 18:42:00,11.0,7.0,-100.00,SSW,201,4.0,9.0,82,0.00,,,0.00,0.000000,,2013-12-17 00:42:00,
2013-12-16 18:52:00,11.0,7.0,-100.00,SSW,201,4.0,9.0,82,0.00,,,0.00,0.000000,,2013-12-17 00:52:00,
2013-12-16 19:02:00,11.0,7.0,-100.00,SSW,201,4.0,9.0,82,0.00,,,0.00,0.000000,,2013-12-17 01:02:00,
2013-12-16 19:11:00,11.0,7.0,-100.00,SSW,201,4.0,9.0,82,0.00,,,0.00,0.000000,,2013-12-17 01:11:00,
2013-12-16 19:42:00,11.0,7.0,-100.00,SSW,209,4.0,9.0,82,0.00,,,0.00,0.000000,,2013-12-17 01:42:00,
2013-12-16 19:52:00,11.0,7.0,-100.00,SSW,209,4.0,9.0,82,0.00,,,0.00,0.000000,,2013-12-17 01:52:00,
2013-12-16 20:01:00,11.0,7.0,-100.00,SSW,209,4.0,9.0,82,0.00,,,0.00,0.000000,,2013-12-17 02:01:00,
2013-12-16 20:11:00,11.0,7.0,-100.00,SSW,209,4.0,9.0,82,0.00,,,0.00,0.000000,,2013-12-17 02:11:00,
2013-12-16 20:42:00,11.0,7.0,-100.00,SW,223,5.0,8.0,82,0.00,,,0.00,0.000000,,2013-12-17 02:42:00,
2013-12-16 20:52:00,11.0,7.0,-100.00,SW,223,5.0,8.0,82,0.00,,,0.00,0.000000,,2013-12-17 02:52:00,
2013-12-16 21:02:00,11.0,7.0,-100.00,SW,223,5.0,8.0,82,0.00,,,0.00,0.000000,,2013-12-17 03:02:00,
2013-12-16 21:11:00,11.0,7.0,-100.00,SW,223,5.0,8.0,82,0.00,,,0.00,0.000000,,2013-12-17 03:11:00,
2013-12-16 21:13:00,10.0,5.0,-100.00,WSW,246,3.0,12.0,80,0.00,,,0.00,0.000000,,2013-12-17 03:13:00,
2013-12-16 21:44:00,10.0,5.0,-100.00,WSW,246,3.0,12.0,80,0.00,,,0.00,0.000000,,2013-12-17 03:44:00,
2013-12-16 21:53:00,10.0,5.0,-100.00,WSW,246,3.0,12.0,80,0.00,,,0.00,0.000000,,2013-12-17 03:53:00,
2013-12-16 22:03:00,10.0,5.0,-100.00,WSW,246,3.0,12.0,80,0.00,,,0.00,0.000000,,2013-12-17 04:03:00,
2013-12-16 22:43:00,9.0,4.0,-100.00,West,269,2.0,8.0,79,0.00,,,0.00,0.000000,,2013-12-17 04:43:00,
2013-12-16 22:53:00,9.0,4.0,-100.00,West,269,2.0,8.0,79,0.00,,,0.00,0.000000,,2013-12-17 04:53:00,
2013-12-16 23:02:00,9.0,4.0,-100.00,West,269,2.0,8.0,79,0.00,,,0.00,0.000000,,2013-12-17 05:02:00,
2013-12-16 23:11:00,9.0,4.0,-100.00,West,269,2.0,8.0,79,0.00,,,0.00,0.000000,,2013-12-17 05:11:00,
2013-12-16 23:42:00,8.0,3.0,-100.00,WNW,285,1.0,5.0,79,0.00,,,0.00,0.000000,,2013-12-17 05:42:00,
2013-12-16 23:53:00,8.0,3.0,-100.00,WNW,285,1.0,5.0,79,0.00,,,0.00,0.000000,,2013-12-17 05:53:00,